Time;durP1;ratioP1;P1;durP2;ratioP2;P2;SDS_P1;SDS_P2;PMS_P1;PMS_P2;Temp;Humidity;BMP_temperature;BMP_pressure;BME280_temperature;BME280_humidity;BME280_pressure;Samples;Min_cycle;Max_cycle;Signal;HPM_P1;HPM_P2
2023/10/12 00:01:57;;;;;;;2.25;0.75;;;15.60;99.90;;;;;;5065808;28;20044;-29
2023/10/12 00:04:28;;;;;;;1.88;0.60;;;15.50;99.90;;;;;;5072178;28;20373;-29
2023/10/12 00:06:55;;;;;;;2.28;0.80;;;15.40;99.90;;;;;;5071628;28;20082;-29
2023/10/12 00:09:25;;;;;;;2.38;1.00;;;15.30;99.90;;;;;;5074033;28;20482;-30
2023/10/12 00:11:57;;;;;;;4.15;1.08;;;15.20;99.90;;;;;;5080127;28;20074;-31
2023/10/12 00:14:28;;;;;;;3.67;1.15;;;15.20;99.90;;;;;;5078566;28;20028;-31
2023/10/12 00:16:54;;;;;;;3.17;1.25;;;15.00;99.90;;;;;;5077343;28;20036;-31
2023/10/12 00:19:23;;;;;;;3.35;1.10;;;15.00;99.90;;;;;;5066353;28;20388;-31
2023/10/12 00:22:11;;;;;;;5.80;1.30;;;14.90;99.90;;;;;;5076510;28;20511;-31
2023/10/12 00:24:38;;;;;;;3.45;1.20;;;14.90;99.90;;;;;;5057889;28;20051;-31
2023/10/12 00:27:15;;;;;;;3.65;1.23;;;14.80;99.90;;;;;;5070268;28;20055;-30
2023/10/12 00:29:41;;;;;;;4.90;1.23;;;14.80;99.90;;;;;;5068920;28;20068;-31
2023/10/12 00:32:08;;;;;;;2.72;0.90;;;14.80;99.90;;;;;;5080037;28;20068;-30
2023/10/12 00:34:38;;;;;;;5.78;1.25;;;14.70;99.90;;;;;;5079101;28;20044;-31
2023/10/12 00:37:06;;;;;;;4.55;1.38;;;14.70;99.90;;;;;;5086623;28;20028;-31
2023/10/12 00:39:47;;;;;;;3.40;1.20;;;14.50;99.90;;;;;;5072608;28;20044;-31
2023/10/12 00:42:17;;;;;;;3.33;1.30;;;14.50;99.90;;;;;;5073050;28;20035;-31
2023/10/12 00:44:46;;;;;;;5.00;1.58;;;14.40;99.90;;;;;;5076859;28;20115;-31
2023/10/12 00:47:13;;;;;;;3.20;1.05;;;14.40;99.90;;;;;;5055642;28;20064;-31
2023/10/12 00:49:48;;;;;;;8.05;1.55;;;14.30;99.90;;;;;;5078143;28;20503;-31
2023/10/12 00:52:23;;;;;;;3.78;1.55;;;14.20;99.90;;;;;;5084363;28;20116;-31
2023/10/12 00:54:56;;;;;;;4.25;1.48;;;14.20;99.90;;;;;;5075430;28;20066;-31
2023/10/12 00:57:23;;;;;;;7.18;1.90;;;14.20;99.90;;;;;;5081919;28;20579;-30
2023/10/12 00:59:52;;;;;;;4.05;1.60;;;14.20;99.90;;;;;;5083343;28;20036;-31
2023/10/12 01:02:23;;;;;;;7.88;2.25;;;14.10;99.90;;;;;;5077892;28;20115;-32
2023/10/12 01:04:52;;;;;;;5.82;1.73;;;14.10;99.90;;;;;;5082656;28;20043;-30
2023/10/12 01:07:25;;;;;;;6.22;1.65;;;14.10;99.90;;;;;;5074933;28;20052;-32
2023/10/12 01:10:03;;;;;;;4.95;1.80;;;14.00;99.90;;;;;;5073607;28;20407;-31
2023/10/12 01:12:31;;;;;;;6.35;1.88;;;14.00;99.90;;;;;;5057065;28;20108;-30
2023/10/12 01:14:57;;;;;;;4.88;1.85;;;13.90;99.90;;;;;;5080464;28;20040;-31
2023/10/12 01:17:29;;;;;;;6.32;1.88;;;13.90;99.90;;;;;;5078075;28;20032;-33
2023/10/12 01:19:58;;;;;;;6.45;1.95;;;13.90;99.90;;;;;;5052897;28;20039;-30
2023/10/12 01:22:27;;;;;;;6.47;1.80;;;13.90;99.90;;;;;;5075639;28;20402;-31
2023/10/12 01:27:22;;;;;;;7.43;1.70;;;13.90;99.90;;;;;;5069802;28;20045;-31
2023/10/12 01:29:48;;;;;;;6.28;1.60;;;13.90;99.90;;;;;;5049598;28;20048;-30
2023/10/12 01:34:51;;;;;;;6.28;1.90;;;13.80;99.90;;;;;;5074376;28;20048;-30
2023/10/12 01:37:24;;;;;;;;;;;13.80;99.90;;;;;;5054530;28;20051;-31
2023/10/12 01:45:19;;;;;;;6.07;1.65;;;13.80;99.90;;;;;;5079701;28;20032;-32
2023/10/12 01:47:54;;;;;;;5.53;1.65;;;13.80;99.90;;;;;;5028995;28;20174;-30
2023/10/12 01:50:21;;;;;;;4.75;1.80;;;13.80;99.90;;;;;;5069754;28;20037;-31
2023/10/12 01:52:52;;;;;;;5.35;1.77;;;13.80;99.90;;;;;;5078403;28;20032;-30
2023/10/12 01:55:22;;;;;;;4.90;1.65;;;13.80;99.90;;;;;;5081072;28;20051;-31
2023/10/12 01:57:53;;;;;;;4.20;1.98;;;13.80;99.90;;;;;;5083943;28;20330;-31
2023/10/12 02:00:25;;;;;;;7.05;2.33;;;13.80;99.90;;;;;;5060766;28;20129;-31
2023/10/12 02:03:00;;;;;;;5.38;1.63;;;13.80;99.90;;;;;;5080823;28;20052;-31
2023/10/12 02:05:37;;;;;;;6.70;2.15;;;13.80;99.90;;;;;;5072745;28;20079;-30
2023/10/12 02:08:05;;;;;;;7.72;2.33;;;13.90;99.90;;;;;;5071137;28;20036;-31
2023/10/12 02:10:43;;;;;;;5.97;1.77;;;13.90;99.90;;;;;;5072589;28;20040;-32
2023/10/12 02:13:10;;;;;;;4.50;2.20;;;13.80;99.90;;;;;;5080226;28;20040;-31
2023/10/12 02:15:37;;;;;;;5.22;2.90;;;13.80;99.90;;;;;;5076195;28;20052;-31
2023/10/12 02:18:10;;;;;;;6.03;2.03;;;13.80;99.90;;;;;;5071886;28;20036;-31
2023/10/12 02:20:42;;;;;;;6.57;2.08;;;13.80;99.90;;;;;;5076398;28;20041;-31
2023/10/12 02:23:12;;;;;;;5.28;2.28;;;13.70;99.90;;;;;;5070030;28;20032;-31
2023/10/12 02:25:50;;;;;;;7.10;2.20;;;13.70;99.90;;;;;;5087126;28;20044;-31
2023/10/12 02:28:22;;;;;;;8.13;2.00;;;13.70;99.90;;;;;;5058055;28;20116;-29
2023/10/12 02:30:55;;;;;;;7.70;2.05;;;13.60;99.90;;;;;;5056610;28;20048;-31
2023/10/12 02:33:27;;;;;;;5.82;2.15;;;13.60;99.90;;;;;;5079398;28;20115;-31
2023/10/12 02:35:54;;;;;;;6.05;2.10;;;13.60;99.90;;;;;;5055308;28;20403;-31
2023/10/12 02:38:21;;;;;;;8.27;2.63;;;13.60;99.90;;;;;;5085884;28;20040;-30
2023/10/12 02:40:49;;;;;;;6.13;2.17;;;13.60;99.90;;;;;;5081568;28;20044;-30
2023/10/12 02:43:15;;;;;;;5.93;2.40;;;13.60;99.90;;;;;;5080961;28;20036;-31
2023/10/12 02:45:42;;;;;;;4.68;1.92;;;13.60;99.90;;;;;;5083304;28;20392;-32
2023/10/12 02:48:22;;;;;;;5.88;2.40;;;13.60;99.90;;;;;;5059523;28;20048;-32
2023/10/12 02:50:57;;;;;;;5.90;2.58;;;13.60;99.90;;;;;;5075709;28;20047;-30
2023/10/12 02:53:30;;;;;;;6.03;2.10;;;13.60;99.90;;;;;;5072796;28;20472;-31
2023/10/12 02:56:01;;;;;;;6.07;2.17;;;13.60;99.90;;;;;;5073462;28;20048;-31
2023/10/12 02:58:28;;;;;;;8.40;2.40;;;13.60;99.90;;;;;;5075558;28;20036;-31
2023/10/12 03:00:56;;;;;;;7.75;2.28;;;13.60;99.90;;;;;;5076821;28;20166;-31
2023/10/12 03:03:27;;;;;;;5.50;2.60;;;13.60;99.90;;;;;;5077891;28;20028;-31
2023/10/12 03:06:03;;;;;;;8.30;2.55;;;13.50;99.90;;;;;;5073521;28;20040;-30
2023/10/12 03:08:33;;;;;;;10.48;2.63;;;13.50;99.90;;;;;;5075164;28;20475;-31
2023/10/12 03:13:35;;;;;;;5.57;2.25;;;13.50;99.90;;;;;;5071146;28;20040;-31
2023/10/12 03:16:09;;;;;;;4.70;2.70;;;13.50;99.90;;;;;;5077143;28;20170;-31
2023/10/12 03:18:35;;;;;;;8.20;2.88;;;13.50;99.90;;;;;;5074232;28;20044;-30
2023/10/12 03:21:04;;;;;;;6.55;2.60;;;13.50;99.90;;;;;;5079523;28;20070;-31
2023/10/12 03:23:34;;;;;;;6.47;2.40;;;13.50;99.90;;;;;;5076487;28;20111;-32
2023/10/12 03:26:18;;;;;;;9.65;2.55;;;13.50;99.90;;;;;;5056381;28;20410;-30
2023/10/12 03:28:45;;;;;;;6.80;2.30;;;13.50;99.90;;;;;;5073360;28;20032;-29
2023/10/12 03:31:25;;;;;;;7.15;2.70;;;13.40;99.90;;;;;;5072613;28;20115;-29
2023/10/12 03:33:55;;;;;;;6.03;2.22;;;13.40;99.90;;;;;;5080908;28;20522;-30
2023/10/12 03:36:25;;;;;;;7.68;3.00;;;13.40;99.90;;;;;;5077530;28;20047;-30
2023/10/12 03:39:13;;;;;;;8.73;2.78;;;13.40;99.90;;;;;;5079748;28;20032;-32
2023/10/12 03:47:36;;;;;;;9.50;3.10;;;13.40;99.90;;;;;;5078359;28;20040;-30
2023/10/12 03:49:59;;;;;;;5.05;2.13;;;13.30;99.90;;;;;;5074276;28;20068;-29
2023/10/12 03:52:40;;;;;;;4.88;2.25;;;13.30;99.90;;;;;;5080268;28;20039;-30
2023/10/12 03:58:00;;;;;;;13.07;2.90;;;13.40;99.90;;;;;;5073382;28;20403;-31
2023/10/12 04:00:34;;;;;;;6.10;2.78;;;13.30;99.90;;;;;;5071017;28;20089;-30
2023/10/12 04:03:05;;;;;;;7.68;3.13;;;13.30;99.90;;;;;;5080011;28;20327;-32
2023/10/12 04:19:03;;;;;;;6.75;3.05;;;13.30;99.90;;;;;;5069429;28;20076;-31
2023/10/12 04:21:40;;;;;;;4.93;2.85;;;13.30;99.90;;;;;;5070957;28;20033;-32
2023/10/12 04:27:07;;;;;;;8.90;3.75;;;13.30;99.90;;;;;;5066930;28;20052;-31
2023/10/12 04:29:31;;;;;;;9.25;3.15;;;13.30;99.90;;;;;;5075905;28;20044;-30
2023/10/12 04:32:09;;;;;;;6.25;3.22;;;13.40;99.90;;;;;;5063106;28;20059;-31
2023/10/12 04:34:46;;;;;;;4.25;2.80;;;13.40;99.90;;;;;;5067665;28;20575;-31
2023/10/12 04:37:18;;;;;;;10.60;3.75;;;13.40;99.90;;;;;;5057837;28;20051;-30
2023/10/12 04:39:49;;;;;;;11.45;3.72;;;13.40;99.90;;;;;;5069799;28;20517;-29
2023/10/12 04:42:23;;;;;;;7.20;3.08;;;13.40;99.90;;;;;;5051406;28;20462;-30
2023/10/12 04:45:03;;;;;;;7.10;3.40;;;13.30;99.90;;;;;;5055048;28;20047;-31
2023/10/12 04:47:31;;;;;;;8.20;3.95;;;13.40;99.90;;;;;;5074117;28;20040;-31
2023/10/12 04:49:57;;;;;;;7.20;3.33;;;13.30;99.90;;;;;;5053827;28;20395;-31
2023/10/12 04:52:32;;;;;;;7.45;3.53;;;13.40;99.90;;;;;;5054435;28;20063;-31
2023/10/12 04:55:06;;;;;;;7.78;3.33;;;13.40;99.90;;;;;;5067351;28;20064;-31
2023/10/12 04:57:34;;;;;;;6.50;3.10;;;13.40;99.90;;;;;;5066066;28;20064;-31
2023/10/12 05:07:54;;;;;;;11.17;3.77;;;13.40;99.90;;;;;;5072665;28;20048;-31
2023/10/12 05:10:26;;;;;;;7.68;3.40;;;13.40;99.90;;;;;;5051274;28;20041;-30
2023/10/12 05:12:57;;;;;;;8.55;3.80;;;13.40;99.90;;;;;;5072591;28;20052;-31
2023/10/12 05:15:26;;;;;;;6.55;3.45;;;13.40;99.90;;;;;;5071998;28;20475;-30
2023/10/12 05:17:52;;;;;;;7.72;3.60;;;13.40;99.90;;;;;;5053237;28;20068;-32
2023/10/12 05:20:22;;;;;;;7.07;3.20;;;13.40;99.90;;;;;;5073827;28;20040;-31
2023/10/12 05:22:48;;;;;;;8.38;3.30;;;13.40;99.90;;;;;;5070857;28;20471;-31
2023/10/12 05:25:14;;;;;;;8.48;3.45;;;13.30;99.90;;;;;;5068731;28;20106;-31
2023/10/12 05:27:39;;;;;;;8.50;3.63;;;13.40;99.90;;;;;;5070135;28;20048;-27
2023/10/12 05:30:16;;;;;;;6.90;3.20;;;13.40;99.90;;;;;;5073316;28;20123;-29
2023/10/12 05:32:44;;;;;;;6.50;2.80;;;13.40;99.90;;;;;;5073532;28;20052;-30
2023/10/12 05:35:16;;;;;;;7.32;3.33;;;13.30;99.90;;;;;;5069924;28;20510;-27
2023/10/12 05:37:49;;;;;;;7.25;3.22;;;13.30;99.90;;;;;;5070607;28;20105;-28
2023/10/12 05:40:20;;;;;;;8.48;2.90;;;13.30;99.90;;;;;;5069805;28;20040;-27
2023/10/12 05:42:48;;;;;;;7.55;3.40;;;13.30;99.90;;;;;;5069680;28;20067;-28
2023/10/12 05:47:46;;;;;;;5.35;3.88;;;13.20;99.90;;;;;;5074277;28;20041;-27
2023/10/12 05:50:15;;;;;;;8.40;3.50;;;13.20;99.90;;;;;;5074324;28;20045;-30
2023/10/12 05:52:41;;;;;;;10.00;3.00;;;13.20;99.90;;;;;;5073716;28;20044;-29
2023/10/12 05:55:21;;;;;;;9.23;3.70;;;13.20;99.90;;;;;;5072020;28;20045;-28
2023/10/12 05:57:50;;;;;;;7.47;3.13;;;13.10;99.90;;;;;;5072760;28;20074;-29
2023/10/12 06:00:35;;;;;;;6.82;3.55;;;13.10;99.90;;;;;;5072395;28;20495;-28
2023/10/12 06:03:05;;;;;;;6.13;3.05;;;13.20;99.90;;;;;;5072573;28;20117;-29
2023/10/12 06:05:32;;;;;;;7.35;3.20;;;13.10;99.90;;;;;;5071541;28;20078;-28
2023/10/12 06:08:00;;;;;;;8.75;3.10;;;13.20;99.90;;;;;;5072380;28;20047;-28
2023/10/12 06:10:40;;;;;;;8.73;3.55;;;13.20;99.90;;;;;;5073096;28;20529;-27
2023/10/12 06:13:10;;;;;;;8.05;3.22;;;13.10;99.90;;;;;;5072225;28;20120;-29
2023/10/12 06:15:42;;;;;;;8.40;3.03;;;13.00;99.90;;;;;;5071866;28;20045;-28
2023/10/12 06:18:21;;;;;;;7.15;3.40;;;13.00;99.90;;;;;;5069229;28;20123;-28
2023/10/12 06:20:58;;;;;;;10.60;3.60;;;13.00;99.90;;;;;;5068962;28;20037;-27
2023/10/12 06:23:24;;;;;;;8.32;3.58;;;12.90;99.90;;;;;;5067843;28;20601;-27
2023/10/12 06:25:49;;;;;;;12.65;3.63;;;12.90;99.90;;;;;;5067239;28;20132;-27
2023/10/12 06:28:17;;;;;;;11.20;4.40;;;12.90;99.90;;;;;;5067050;28;20079;-29
2023/10/12 06:30:46;;;;;;;18.10;4.50;;;12.80;99.90;;;;;;5067679;28;20049;-29
2023/10/12 06:33:14;;;;;;;11.85;4.30;;;12.90;99.90;;;;;;5068238;28;20052;-28
2023/10/12 06:36:01;;;;;;;9.95;4.70;;;12.90;99.90;;;;;;5068186;28;20050;-27
2023/10/12 06:38:39;;;;;;;7.15;4.15;;;13.00;99.90;;;;;;5050260;28;20052;-28
2023/10/12 06:43:59;;;;;;;8.98;4.35;;;13.10;99.90;;;;;;5068591;28;20057;-28
2023/10/12 06:46:33;;;;;;;9.25;4.50;;;13.10;99.90;;;;;;5050408;28;20055;-29
2023/10/12 06:49:00;;;;;;;8.30;5.05;;;13.10;99.90;;;;;;5068048;28;20087;-28
2023/10/12 06:51:28;;;;;;;12.55;4.95;;;13.10;99.90;;;;;;5103144;22;20102;-88
2023/10/12 06:54:06;;;;;;;7.78;4.35;;;13.10;99.90;;;;;;5050777;28;20044;-89
2023/10/12 06:56:38;;;;;;;8.55;4.35;;;13.20;99.90;;;;;;5063908;28;20077;-87
2023/10/12 07:04:27;;;;;;;8.68;5.13;;;13.20;99.90;;;;;;5067439;28;20040;-89
2023/10/12 07:06:56;;;;;;;9.45;5.18;;;13.30;99.90;;;;;;5053984;28;20503;-88
2023/10/12 07:09:43;;;;;;;11.27;5.18;;;13.40;99.90;;;;;;5049163;28;20036;-88
2023/10/12 07:12:17;;;;;;;7.32;5.18;;;13.40;99.90;;;;;;5043592;28;20084;-89
2023/10/12 07:14:46;;;;;;;10.30;6.03;;;13.40;99.90;;;;;;5051506;28;20047;-88
2023/10/12 07:17:13;;;;;;;15.27;6.22;;;13.40;99.90;;;;;;5066866;28;20044;-88
2023/10/12 07:19:47;;;;;;;11.15;5.82;;;13.50;99.90;;;;;;5051014;28;20032;-88
2023/10/12 07:22:18;;;;;;;10.68;6.00;;;13.40;99.90;;;;;;5062126;28;20051;-89
2023/10/12 07:24:45;;;;;;;9.23;6.03;;;13.60;99.90;;;;;;5057104;28;20519;-88
2023/10/12 07:27:11;;;;;;;10.43;6.05;;;13.50;99.90;;;;;;5066200;28;20044;-88
2023/10/12 07:29:44;;;;;;;11.90;6.22;;;13.50;99.90;;;;;;5069003;28;20052;-88
2023/10/12 07:32:38;;;;;;;11.68;6.32;;;13.50;99.90;;;;;;5049314;28;20036;-88
2023/10/12 07:35:53;;;;;;;8.60;5.00;;;13.60;99.90;;;;;;5048582;28;20044;-89
2023/10/12 07:37:54;;;;;;;11.63;5.93;;;13.60;99.90;;;;;;5046018;28;20052;-88
2023/10/12 07:40:22;;;;;;;12.70;6.22;;;13.80;99.90;;;;;;5049758;28;20426;-89
2023/10/12 07:42:48;;;;;;;12.30;5.32;;;14.00;99.90;;;;;;5053165;28;20044;-88
2023/10/12 07:45:15;;;;;;;12.15;5.13;;;14.00;99.90;;;;;;5068835;28;20044;-89
2023/10/12 07:47:42;;;;;;;12.32;5.63;;;14.20;99.90;;;;;;5066948;28;20047;-88
2023/10/12 07:50:25;;;;;;;9.40;4.40;;;14.30;99.90;;;;;;5065503;28;20036;-88
2023/10/12 07:53:06;;;;;;;11.30;5.55;;;14.40;99.90;;;;;;5061541;28;20119;-88
2023/10/12 07:55:41;;;;;;;8.55;4.20;;;14.50;99.90;;;;;;5048361;28;20127;-88
2023/10/12 07:58:12;;;;;;;6.47;4.22;;;14.80;99.90;;;;;;5050568;28;20391;-89
2023/10/12 08:00:41;;;;;;;9.00;3.95;;;15.20;99.90;;;;;;5050697;28;20448;-88
2023/10/12 08:03:18;;;;;;;8.63;3.35;;;15.50;99.90;;;;;;5068765;28;20040;-88
2023/10/12 08:05:56;;;;;;;8.60;3.40;;;15.60;99.90;;;;;;5066616;28;20055;-88
2023/10/12 08:08:37;;;;;;;9.85;3.30;;;15.80;99.90;;;;;;5048459;28;20051;-88
2023/10/12 08:11:10;;;;;;;6.35;2.97;;;15.60;99.90;;;;;;5042753;28;20044;-88
2023/10/12 08:13:48;;;;;;;8.63;2.95;;;15.60;99.90;;;;;;5064304;28;20101;-88
2023/10/12 08:16:15;;;;;;;11.88;3.65;;;15.60;99.90;;;;;;5065627;28;20110;-89
2023/10/12 08:19:09;;;;;;;10.48;2.55;;;15.60;99.90;;;;;;5067921;28;20044;-88
2023/10/12 08:21:38;;;;;;;6.40;2.70;;;15.90;99.90;;;;;;5043815;28;20060;-88
2023/10/12 08:39:39;;;;;;;11.80;2.42;;;16.00;99.90;;;;;;5070646;28;20049;-88
2023/10/12 08:44:58;;;;;;;6.13;2.30;;;15.80;99.90;;;;;;5068578;28;20123;-88
2023/10/12 08:52:29;;;;;;;8.00;2.42;;;15.70;99.90;;;;;;5072768;28;20090;-88
2023/10/12 08:55:04;;;;;;;5.70;2.05;;;15.50;99.90;;;;;;5063803;28;20124;-88
2023/10/12 08:58:01;;;;;;;6.45;2.15;;;15.40;99.90;;;;;;5053952;28;20040;-88
2023/10/12 09:05:51;;;;;;;8.80;2.42;;;15.30;99.90;;;;;;5070937;28;20529;-89
2023/10/12 09:10:55;;;;;;;7.18;2.20;;;15.30;99.90;;;;;;5068593;28;20052;-89
2023/10/12 09:13:27;;;;;;;9.00;2.10;;;15.30;99.90;;;;;;5069458;28;20101;-89
2023/10/12 09:15:58;;;;;;;7.85;1.85;;;15.40;99.90;;;;;;5068532;28;20032;-88
2023/10/12 09:18:57;;;;;;;8.32;2.05;;;15.50;99.90;;;;;;5051677;28;20068;-88
2023/10/12 09:26:34;;;;;;;8.75;2.08;;;15.40;99.90;;;;;;5067496;28;20052;-89
2023/10/12 09:36:45;;;;;;;15.23;2.63;;;15.50;99.90;;;;;;5068185;28;20044;-88
2023/10/12 09:39:14;;;;;;;5.40;1.80;;;15.40;99.90;;;;;;5052490;28;20047;-90
2023/10/12 09:41:43;;;;;;;9.40;2.08;;;15.30;99.90;;;;;;5047393;28;20045;-89
2023/10/12 09:44:12;;;;;;;6.15;1.50;;;15.40;99.90;;;;;;5054702;28;20479;-89
2023/10/12 09:46:55;;;;;;;7.47;1.95;;;15.60;99.90;;;;;;5051710;28;20071;-89
2023/10/12 09:49:22;;;;;;;11.38;2.63;;;15.60;99.90;;;;;;5070183;28;20127;-88
2023/10/12 09:52:07;;;;;;;6.15;2.13;;;15.70;99.90;;;;;;5051674;28;20567;-89
2023/10/12 09:54:57;;;;;;;5.15;1.60;;;15.90;99.90;;;;;;5046919;28;20131;-89
2023/10/12 09:57:27;;;;;;;5.85;1.77;;;16.30;99.90;;;;;;5047810;28;20032;-88
2023/10/12 09:59:59;;;;;;;7.50;1.60;;;16.60;99.90;;;;;;5063889;28;20033;-89
2023/10/12 10:02:28;;;;;;;7.75;1.83;;;16.70;99.90;;;;;;5066359;28;20086;-89
2023/10/12 10:07:55;;;;;;;8.80;2.13;;;16.60;99.90;;;;;;5037968;28;20064;-90
2023/10/12 10:10:32;;;;;;;8.82;1.98;;;16.70;99.90;;;;;;5051177;28;20394;-90
2023/10/12 10:13:10;;;;;;;9.85;2.17;;;16.70;99.90;;;;;;5070286;28;20043;-89
2023/10/12 10:16:08;;;;;;;9.32;2.13;;;16.60;99.90;;;;;;5047121;28;20128;-90
2023/10/12 10:21:38;;;;;;;5.13;1.90;;;16.60;99.90;;;;;;5066328;28;20051;-90
2023/10/12 10:24:19;;;;;;;9.68;2.13;;;16.60;99.90;;;;;;5044296;28;20033;-90
2023/10/12 10:26:57;;;;;;;5.85;2.00;;;16.50;99.90;;;;;;5051812;28;20043;-90
2023/10/12 10:29:42;;;;;;;9.20;1.73;;;16.60;99.90;;;;;;5065610;28;20037;-90
2023/10/12 10:32:24;;;;;;;8.32;2.05;;;16.70;99.90;;;;;;5053221;28;20047;-90
2023/10/12 10:35:04;;;;;;;7.30;1.88;;;16.70;99.90;;;;;;5068506;28;20060;-90
2023/10/12 10:37:47;;;;;;;7.53;1.60;;;16.80;99.90;;;;;;5061451;28;20053;-90
2023/10/12 10:40:20;;;;;;;6.10;1.98;;;16.60;99.90;;;;;;5049767;28;20048;-90
2023/10/12 10:43:16;;;;;;;10.10;2.10;;;16.60;99.90;;;;;;5054125;28;20100;-91
2023/10/12 10:46:09;;;;;;;7.88;1.90;;;16.60;99.90;;;;;;5044637;28;20495;-90
2023/10/12 10:48:36;;;;;;;7.45;1.63;;;16.60;99.90;;;;;;5059251;28;20045;-90
2023/10/12 10:51:18;;;;;;;8.38;1.98;;;16.70;99.90;;;;;;5049554;28;20108;-90
2023/10/12 10:53:51;;;;;;;5.75;1.65;;;16.50;99.90;;;;;;5050108;28;20444;-90
2023/10/12 10:56:36;;;;;;;7.18;2.00;;;16.40;99.90;;;;;;5051210;28;20087;-90
2023/10/12 10:59:12;;;;;;;8.60;1.90;;;16.40;99.90;;;;;;5047139;28;20402;-90
2023/10/12 11:01:46;;;;;;;6.00;1.58;;;16.30;99.90;;;;;;5046309;28;20112;-89
2023/10/12 11:04:26;;;;;;;7.30;2.05;;;16.40;99.90;;;;;;5052091;28;20131;-90
2023/10/12 11:07:03;;;;;;;6.82;2.00;;;16.40;99.90;;;;;;5053227;28;20048;-90
2023/10/12 11:12:38;;;;;;;6.60;1.90;;;16.50;99.90;;;;;;5029888;28;21243;-90
2023/10/12 11:15:28;;;;;;;9.60;2.08;;;16.60;99.90;;;;;;5050992;28;20040;-91
2023/10/12 11:18:17;;;;;;;9.95;2.05;;;16.60;99.90;;;;;;5048035;28;20033;-90
2023/10/12 11:20:57;;;;;;;7.85;1.80;;;16.60;99.90;;;;;;5046258;28;20495;-91
2023/10/12 11:23:31;;;;;;;5.72;1.73;;;16.70;99.90;;;;;;5051297;28;20372;-91
2023/10/12 11:26:17;;;;;;;9.82;2.10;;;16.70;99.90;;;;;;5048764;28;20036;-91
2023/10/12 11:29:00;;;;;;;6.38;1.90;;;16.80;99.90;;;;;;5047468;28;20082;-91
2023/10/12 11:31:46;;;;;;;10.35;1.77;;;16.80;99.90;;;;;;5034236;28;20052;-90
2023/10/12 11:34:36;;;;;;;5.32;2.13;;;16.90;99.90;;;;;;5049737;28;20033;-90
2023/10/12 11:37:23;;;;;;;6.57;2.03;;;17.00;99.90;;;;;;5066734;28;20041;-90
2023/10/12 11:39:53;;;;;;;7.68;1.83;;;17.00;99.90;;;;;;5057994;28;20138;-91
2023/10/12 11:42:22;;;;;;;9.80;2.22;;;17.00;99.90;;;;;;5047814;28;20498;-90
2023/10/12 11:44:53;;;;;;;5.03;1.63;;;16.90;99.90;;;;;;5046518;28;20066;-91
2023/10/12 11:47:26;;;;;;;5.35;1.92;;;16.80;99.90;;;;;;5052598;28;20041;-90
2023/10/12 11:49:58;;;;;;;8.77;2.20;;;16.60;99.90;;;;;;5043756;28;20033;-91
2023/10/12 11:52:32;;;;;;;9.60;2.55;;;16.60;99.90;;;;;;5050475;28;20044;-89
2023/10/12 11:55:27;;;;;;;7.72;1.95;;;16.40;99.90;;;;;;5044953;28;20115;-90
2023/10/12 11:58:07;;;;;;;12.88;2.88;;;16.40;99.90;;;;;;5047675;28;20055;-90
2023/10/12 12:01:00;;;;;;;9.88;1.75;;;16.40;99.90;;;;;;5064987;28;20115;-90
2023/10/12 12:03:36;;;;;;;9.40;1.63;;;16.20;99.90;;;;;;5047976;28;20039;-90
2023/10/12 12:06:21;;;;;;;8.57;2.10;;;16.20;99.90;;;;;;5053815;28;20643;-90
2023/10/12 12:09:07;;;;;;;5.93;1.75;;;16.20;99.90;;;;;;5054274;28;20048;-90
2023/10/12 12:11:42;;;;;;;5.70;2.15;;;16.00;99.90;;;;;;5051179;28;20048;-91
2023/10/12 12:14:17;;;;;;;9.05;2.17;;;16.00;99.90;;;;;;5071432;28;20041;-90
2023/10/12 12:16:48;;;;;;;7.97;1.77;;;15.90;99.90;;;;;;5054032;28;20123;-90
2023/10/12 12:19:24;;;;;;;5.38;1.63;;;15.90;99.90;;;;;;5055622;28;20440;-91
2023/10/12 12:21:56;;;;;;;10.55;2.05;;;16.00;99.90;;;;;;5048825;28;20094;-89
2023/10/12 12:24:29;;;;;;;9.77;1.70;;;15.90;99.90;;;;;;5072103;28;20033;-90
2023/10/12 12:26:57;;;;;;;6.68;1.63;;;15.80;99.90;;;;;;5057651;28;20036;-90
2023/10/12 12:29:29;;;;;;;6.95;1.98;;;15.70;99.90;;;;;;5049420;28;20044;-91
2023/10/12 12:32:03;;;;;;;8.07;2.05;;;15.80;99.90;;;;;;5053668;28;20102;-90
2023/10/12 12:34:41;;;;;;;7.03;1.88;;;15.80;99.90;;;;;;5051189;28;20049;-90
2023/10/12 12:37:18;;;;;;;6.22;2.00;;;15.70;99.90;;;;;;5068038;28;20044;-90
2023/10/12 12:42:50;;;;;;;6.95;2.08;;;15.70;99.90;;;;;;5072548;28;20045;-90
2023/10/12 12:45:22;;;;;;;8.68;2.40;;;15.70;99.90;;;;;;5051283;28;20056;-90
2023/10/12 12:47:49;;;;;;;7.70;2.13;;;15.60;99.90;;;;;;5071066;28;20047;-90
2023/10/12 12:50:15;;;;;;;7.43;2.60;;;15.50;99.90;;;;;;5054991;28;20127;-89
2023/10/12 12:52:46;;;;;;;7.80;2.50;;;15.50;99.90;;;;;;5083027;22;20053;-25
2023/10/12 12:55:16;;;;;;;8.27;1.98;;;15.40;99.90;;;;;;5087069;28;20036;-25
2023/10/12 12:57:43;;;;;;;10.13;3.10;;;15.40;99.90;;;;;;5080509;28;20445;-25
2023/10/12 13:00:10;;;;;;;10.07;3.10;;;15.30;99.90;;;;;;5077786;28;20067;-25
2023/10/12 13:02:39;;;;;;;6.68;3.13;;;15.20;99.90;;;;;;5060110;28;20445;-25
2023/10/12 13:05:05;;;;;;;4.72;2.38;;;15.10;99.90;;;;;;5072656;28;20037;-25
2023/10/12 13:07:31;;;;;;;7.95;2.28;;;15.00;99.90;;;;;;5077947;28;20041;-27
2023/10/12 13:09:58;;;;;;;9.60;2.65;;;14.90;99.90;;;;;;5077903;28;20040;-27
2023/10/12 13:12:23;;;;;;;4.05;2.47;;;14.80;99.90;;;;;;5077742;28;20040;-27
2023/10/12 13:14:50;;;;;;;11.35;2.83;;;14.70;99.90;;;;;;5076454;28;20067;-27
2023/10/12 13:17:18;;;;;;;7.00;2.50;;;14.70;99.90;;;;;;5073370;28;20033;-27
2023/10/12 13:19:44;;;;;;;7.43;2.97;;;14.60;99.90;;;;;;5074514;28;20040;-27
2023/10/12 13:22:10;;;;;;;8.98;2.78;;;14.60;99.90;;;;;;5074367;28;20048;-27
2023/10/12 13:24:37;;;;;;;6.53;2.10;;;14.60;99.90;;;;;;5083073;28;20482;-27
2023/10/12 13:27:09;;;;;;;10.45;2.58;;;14.60;99.90;;;;;;5082478;28;20033;-27
2023/10/12 13:29:35;;;;;;;6.10;2.17;;;14.60;99.90;;;;;;5074597;28;20056;-28
2023/10/12 13:32:01;;;;;;;5.82;1.98;;;14.50;99.90;;;;;;5085071;28;20116;-27
2023/10/12 13:34:26;;;;;;;6.82;2.17;;;14.50;99.90;;;;;;5074430;28;20479;-27
2023/10/12 13:36:52;;;;;;;8.43;2.13;;;14.50;99.90;;;;;;5071361;28;20036;-27
2023/10/12 13:39:18;;;;;;;10.15;2.63;;;14.50;99.90;;;;;;5074222;28;20033;-27
2023/10/12 13:41:43;;;;;;;5.85;2.20;;;14.40;99.90;;;;;;5075228;28;20032;-27
2023/10/12 13:44:09;;;;;;;8.45;2.08;;;14.40;99.90;;;;;;5076277;28;20058;-27
2023/10/12 13:46:34;;;;;;;6.78;2.40;;;14.40;99.90;;;;;;5074088;28;20043;-28
2023/10/12 13:49:02;;;;;;;6.75;2.60;;;14.40;99.90;;;;;;5081130;28;20124;-27
2023/10/12 13:51:31;;;;;;;8.05;2.60;;;14.30;99.90;;;;;;5073925;28;20487;-27
2023/10/12 13:53:57;;;;;;;8.95;2.15;;;14.30;99.90;;;;;;5073415;28;20097;-27
2023/10/12 13:56:23;;;;;;;5.90;2.28;;;14.30;99.90;;;;;;5062576;28;20049;-27
2023/10/12 13:58:52;;;;;;;8.27;2.22;;;14.30;99.90;;;;;;5070619;28;20376;-27
2023/10/12 14:01:21;;;;;;;6.88;2.30;;;14.20;99.90;;;;;;5079745;28;20422;-27
2023/10/12 14:03:55;;;;;;;8.15;2.13;;;14.20;99.90;;;;;;5072379;28;20480;-28
2023/10/12 14:06:24;;;;;;;7.82;2.53;;;14.10;99.90;;;;;;5063659;28;20383;-28
2023/10/12 14:08:51;;;;;;;9.70;3.25;;;14.10;99.90;;;;;;5075542;28;20052;-28
2023/10/12 14:11:17;;;;;;;8.10;2.47;;;13.90;99.90;;;;;;5079953;28;20056;-27
2023/10/12 14:13:44;;;;;;;6.88;2.33;;;13.90;99.90;;;;;;5055707;28;20536;-27
2023/10/12 14:16:10;;;;;;;7.68;2.45;;;13.90;99.90;;;;;;5078298;28;20043;-27
2023/10/12 14:18:37;;;;;;;7.35;1.92;;;13.90;99.90;;;;;;5079802;28;20466;-27
2023/10/12 14:21:09;;;;;;;11.02;3.08;;;13.90;99.90;;;;;;5073451;28;20039;-27
2023/10/12 14:23:43;;;;;;;5.20;2.50;;;13.90;99.90;;;;;;5074531;28;20079;-27
2023/10/12 14:26:10;;;;;;;9.02;2.80;;;13.90;99.90;;;;;;5086002;28;20043;-27
2023/10/12 14:28:36;;;;;;;8.40;2.90;;;13.80;99.90;;;;;;5069517;28;20040;-28
2023/10/12 14:31:05;;;;;;;5.88;2.38;;;13.80;99.90;;;;;;5065953;28;20041;-27
2023/10/12 14:33:31;;;;;;;7.00;3.08;;;13.80;99.90;;;;;;5069071;28;20068;-27
2023/10/12 14:35:58;;;;;;;5.65;2.95;;;13.80;99.90;;;;;;5057144;28;20036;-27
2023/10/12 14:38:25;;;;;;;5.43;2.58;;;13.80;99.90;;;;;;5076036;28;20036;-27
2023/10/12 14:40:50;;;;;;;6.32;2.72;;;13.70;99.90;;;;;;5081011;28;20045;-27
2023/10/12 14:43:17;;;;;;;6.00;3.03;;;13.70;99.90;;;;;;5063163;28;20453;-27
2023/10/12 14:45:58;;;;;;;8.32;2.90;;;13.80;99.90;;;;;;5090377;28;20077;-27
2023/10/12 14:48:27;;;;;;;8.25;2.45;;;13.70;99.90;;;;;;5078149;28;20353;-27
2023/10/12 14:51:48;;;;;;;7.47;2.50;;;13.60;99.90;;;;;;5055401;28;20051;-27
2023/10/12 14:53:50;;;;;;;10.80;3.17;;;13.60;99.90;;;;;;5070565;28;20510;-27
2023/10/12 14:56:27;;;;;;;8.05;2.60;;;13.50;99.90;;;;;;5071210;28;20410;-27
2023/10/12 14:58:53;;;;;;;9.77;3.08;;;13.60;99.90;;;;;;5070873;28;20071;-27
2023/10/12 15:01:21;;;;;;;6.45;2.80;;;13.50;99.90;;;;;;5054868;28;20045;-27
2023/10/12 15:03:46;;;;;;;8.35;3.53;;;13.50;99.90;;;;;;5074136;28;20040;-27
2023/10/12 15:06:12;;;;;;;8.07;3.42;;;13.50;99.90;;;;;;5079072;28;20529;-27